sensor_id;sensor_type;location;lat;lon;timestamp;P1;durP1;ratioP1;P2;durP2;ratioP2
12784;SDS011;6456;42.680;23.260;2023-02-15T00:01:58;27.23;;;19.33;;
12784;SDS011;6456;42.680;23.260;2023-02-15T00:04:26;28.83;;;20.37;;
12784;SDS011;6456;42.680;23.260;2023-02-15T00:07:12;30.43;;;20.97;;
12784;SDS011;6456;42.680;23.260;2023-02-15T00:09:40;30.73;;;21.23;;
12784;SDS011;6456;42.680;23.260;2023-02-15T00:12:09;30.90;;;21.20;;
12784;SDS011;6456;42.680;23.260;2023-02-15T00:14:36;27.80;;;19.27;;
12784;SDS011;6456;42.680;23.260;2023-02-15T00:17:03;28.87;;;20.37;;
12784;SDS011;6456;42.680;23.260;2023-02-15T00:19:30;28.07;;;20.47;;
12784;SDS011;6456;42.680;23.260;2023-02-15T00:21:57;29.50;;;20.50;;
12784;SDS011;6456;42.680;23.260;2023-02-15T00:24:24;28.53;;;21.03;;
12784;SDS011;6456;42.680;23.260;2023-02-15T00:26:51;29.87;;;21.37;;
12784;SDS011;6456;42.680;23.260;2023-02-15T00:29:19;29.70;;;20.80;;
12784;SDS011;6456;42.680;23.260;2023-02-15T00:31:47;29.47;;;21.23;;
12784;SDS011;6456;42.680;23.260;2023-02-15T00:34:16;29.73;;;21.17;;
12784;SDS011;6456;42.680;23.260;2023-02-15T00:36:44;28.70;;;20.03;;
12784;SDS011;6456;42.680;23.260;2023-02-15T00:39:12;27.57;;;20.47;;
12784;SDS011;6456;42.680;23.260;2023-02-15T00:41:39;27.57;;;20.37;;
12784;SDS011;6456;42.680;23.260;2023-02-15T00:44:06;30.77;;;20.57;;
12784;SDS011;6456;42.680;23.260;2023-02-15T00:46:35;27.73;;;19.57;;
12784;SDS011;6456;42.680;23.260;2023-02-15T00:49:02;29.37;;;20.17;;
12784;SDS011;6456;42.680;23.260;2023-02-15T00:51:29;28.07;;;19.70;;
12784;SDS011;6456;42.680;23.260;2023-02-15T00:53:59;27.33;;;20.00;;
12784;SDS011;6456;42.680;23.260;2023-02-15T00:56:26;25.60;;;18.83;;
12784;SDS011;6456;42.680;23.260;2023-02-15T00:58:53;28.50;;;19.67;;
12784;SDS011;6456;42.680;23.260;2023-02-15T01:01:20;26.57;;;18.27;;
12784;SDS011;6456;42.680;23.260;2023-02-15T01:03:49;27.07;;;18.93;;
12784;SDS011;6456;42.680;23.260;2023-02-15T01:06:17;27.47;;;19.47;;
12784;SDS011;6456;42.680;23.260;2023-02-15T01:08:44;27.37;;;19.17;;
12784;SDS011;6456;42.680;23.260;2023-02-15T01:11:13;26.33;;;18.90;;
12784;SDS011;6456;42.680;23.260;2023-02-15T01:13:46;27.00;;;19.57;;
12784;SDS011;6456;42.680;23.260;2023-02-15T01:16:14;28.33;;;19.87;;
12784;SDS011;6456;42.680;23.260;2023-02-15T01:18:41;28.87;;;19.40;;
12784;SDS011;6456;42.680;23.260;2023-02-15T01:21:12;26.17;;;19.63;;
12784;SDS011;6456;42.680;23.260;2023-02-15T01:23:41;26.73;;;19.00;;
12784;SDS011;6456;42.680;23.260;2023-02-15T01:26:09;25.27;;;19.03;;
12784;SDS011;6456;42.680;23.260;2023-02-15T01:28:37;27.20;;;20.70;;
12784;SDS011;6456;42.680;23.260;2023-02-15T01:31:04;26.53;;;19.17;;
12784;SDS011;6456;42.680;23.260;2023-02-15T01:33:32;25.77;;;18.90;;
12784;SDS011;6456;42.680;23.260;2023-02-15T01:35:59;27.67;;;20.07;;
12784;SDS011;6456;42.680;23.260;2023-02-15T01:38:28;25.67;;;19.30;;
12784;SDS011;6456;42.680;23.260;2023-02-15T01:40:58;26.67;;;19.20;;
12784;SDS011;6456;42.680;23.260;2023-02-15T01:43:45;26.80;;;18.83;;
12784;SDS011;6456;42.680;23.260;2023-02-15T01:46:14;28.10;;;19.63;;
12784;SDS011;6456;42.680;23.260;2023-02-15T01:48:44;25.17;;;18.57;;
12784;SDS011;6456;42.680;23.260;2023-02-15T01:51:14;25.80;;;18.90;;
12784;SDS011;6456;42.680;23.260;2023-02-15T01:53:49;25.50;;;19.33;;
12784;SDS011;6456;42.680;23.260;2023-02-15T01:56:19;24.07;;;18.47;;
12784;SDS011;6456;42.680;23.260;2023-02-15T01:58:49;24.27;;;18.40;;
12784;SDS011;6456;42.680;23.260;2023-02-15T02:01:18;28.50;;;19.60;;
12784;SDS011;6456;42.680;23.260;2023-02-15T02:03:48;26.90;;;19.37;;
12784;SDS011;6456;42.680;23.260;2023-02-15T02:06:20;26.17;;;18.43;;
12784;SDS011;6456;42.680;23.260;2023-02-15T02:08:49;25.63;;;18.87;;
12784;SDS011;6456;42.680;23.260;2023-02-15T02:11:16;26.17;;;18.23;;
12784;SDS011;6456;42.680;23.260;2023-02-15T02:13:43;23.90;;;17.70;;
12784;SDS011;6456;42.680;23.260;2023-02-15T02:16:11;24.73;;;18.57;;
12784;SDS011;6456;42.680;23.260;2023-02-15T02:18:49;28.73;;;19.30;;
12784;SDS011;6456;42.680;23.260;2023-02-15T02:21:35;27.13;;;19.10;;
12784;SDS011;6456;42.680;23.260;2023-02-15T02:24:36;25.73;;;18.33;;
12784;SDS011;6456;42.680;23.260;2023-02-15T02:27:32;24.77;;;17.40;;
12784;SDS011;6456;42.680;23.260;2023-02-15T02:30:09;26.60;;;18.57;;
12784;SDS011;6456;42.680;23.260;2023-02-15T02:33:14;23.37;;;17.60;;
12784;SDS011;6456;42.680;23.260;2023-02-15T02:35:53;24.17;;;17.40;;
12784;SDS011;6456;42.680;23.260;2023-02-15T02:38:27;25.63;;;17.87;;
12784;SDS011;6456;42.680;23.260;2023-02-15T02:41:05;23.67;;;17.73;;
12784;SDS011;6456;42.680;23.260;2023-02-15T02:43:40;23.20;;;16.33;;
12784;SDS011;6456;42.680;23.260;2023-02-15T02:46:17;25.00;;;18.63;;
12784;SDS011;6456;42.680;23.260;2023-02-15T02:48:49;25.87;;;18.40;;
12784;SDS011;6456;42.680;23.260;2023-02-15T02:51:16;23.90;;;17.40;;
12784;SDS011;6456;42.680;23.260;2023-02-15T02:53:47;24.43;;;18.07;;
12784;SDS011;6456;42.680;23.260;2023-02-15T02:56:19;23.43;;;16.97;;
12784;SDS011;6456;42.680;23.260;2023-02-15T02:58:51;26.97;;;18.83;;
12784;SDS011;6456;42.680;23.260;2023-02-15T03:01:27;24.13;;;16.47;;
12784;SDS011;6456;42.680;23.260;2023-02-15T03:04:01;23.20;;;16.63;;
12784;SDS011;6456;42.680;23.260;2023-02-15T03:06:35;25.27;;;17.20;;
12784;SDS011;6456;42.680;23.260;2023-02-15T03:09:08;23.40;;;17.63;;
12784;SDS011;6456;42.680;23.260;2023-02-15T03:11:41;22.37;;;16.57;;
12784;SDS011;6456;42.680;23.260;2023-02-15T03:14:09;24.13;;;16.87;;
12784;SDS011;6456;42.680;23.260;2023-02-15T03:16:38;22.37;;;16.43;;
12784;SDS011;6456;42.680;23.260;2023-02-15T03:19:09;23.00;;;16.70;;
12784;SDS011;6456;42.680;23.260;2023-02-15T03:21:40;22.60;;;16.60;;
12784;SDS011;6456;42.680;23.260;2023-02-15T03:24:16;21.97;;;15.97;;
12784;SDS011;6456;42.680;23.260;2023-02-15T03:26:47;22.97;;;17.77;;
12784;SDS011;6456;42.680;23.260;2023-02-15T03:29:18;21.70;;;16.53;;
12784;SDS011;6456;42.680;23.260;2023-02-15T03:31:51;22.67;;;15.67;;
12784;SDS011;6456;42.680;23.260;2023-02-15T03:34:24;23.07;;;16.40;;
12784;SDS011;6456;42.680;23.260;2023-02-15T03:36:52;21.83;;;16.50;;
12784;SDS011;6456;42.680;23.260;2023-02-15T03:39:25;22.43;;;16.50;;
12784;SDS011;6456;42.680;23.260;2023-02-15T03:42:00;22.10;;;16.67;;
12784;SDS011;6456;42.680;23.260;2023-02-15T03:44:35;20.10;;;15.77;;
12784;SDS011;6456;42.680;23.260;2023-02-15T03:47:06;20.63;;;16.17;;
12784;SDS011;6456;42.680;23.260;2023-02-15T03:49:40;21.73;;;16.67;;
12784;SDS011;6456;42.680;23.260;2023-02-15T03:52:10;22.77;;;16.57;;
12784;SDS011;6456;42.680;23.260;2023-02-15T03:54:39;24.97;;;17.13;;
12784;SDS011;6456;42.680;23.260;2023-02-15T03:57:13;20.90;;;15.80;;
12784;SDS011;6456;42.680;23.260;2023-02-15T03:59:59;22.93;;;16.30;;
12784;SDS011;6456;42.680;23.260;2023-02-15T04:02:50;21.17;;;16.23;;
12784;SDS011;6456;42.680;23.260;2023-02-15T04:05:28;21.97;;;16.13;;
12784;SDS011;6456;42.680;23.260;2023-02-15T04:07:55;21.13;;;16.67;;
12784;SDS011;6456;42.680;23.260;2023-02-15T04:10:22;23.70;;;16.97;;
12784;SDS011;6456;42.680;23.260;2023-02-15T04:13:06;22.37;;;16.50;;
12784;SDS011;6456;42.680;23.260;2023-02-15T04:15:33;22.27;;;15.77;;
12784;SDS011;6456;42.680;23.260;2023-02-15T04:18:17;22.77;;;16.10;;
12784;SDS011;6456;42.680;23.260;2023-02-15T04:20:45;23.40;;;17.67;;
12784;SDS011;6456;42.680;23.260;2023-02-15T04:23:30;24.03;;;17.53;;
12784;SDS011;6456;42.680;23.260;2023-02-15T04:26:14;22.77;;;17.10;;
12784;SDS011;6456;42.680;23.260;2023-02-15T04:28:41;24.23;;;17.13;;
12784;SDS011;6456;42.680;23.260;2023-02-15T04:31:08;22.77;;;16.90;;
12784;SDS011;6456;42.680;23.260;2023-02-15T04:33:35;22.83;;;17.07;;
12784;SDS011;6456;42.680;23.260;2023-02-15T04:36:04;21.63;;;16.43;;
12784;SDS011;6456;42.680;23.260;2023-02-15T04:38:31;23.40;;;16.93;;
12784;SDS011;6456;42.680;23.260;2023-02-15T04:40:58;22.53;;;16.87;;
12784;SDS011;6456;42.680;23.260;2023-02-15T04:43:25;24.77;;;17.87;;
12784;SDS011;6456;42.680;23.260;2023-02-15T04:45:52;24.47;;;17.43;;
12784;SDS011;6456;42.680;23.260;2023-02-15T04:48:19;24.80;;;17.73;;
12784;SDS011;6456;42.680;23.260;2023-02-15T04:50:46;23.27;;;16.63;;
12784;SDS011;6456;42.680;23.260;2023-02-15T04:53:14;27.37;;;18.13;;
12784;SDS011;6456;42.680;23.260;2023-02-15T04:55:43;25.17;;;17.53;;
12784;SDS011;6456;42.680;23.260;2023-02-15T04:58:10;24.37;;;18.30;;
12784;SDS011;6456;42.680;23.260;2023-02-15T05:00:37;22.87;;;16.10;;
12784;SDS011;6456;42.680;23.260;2023-02-15T05:03:04;25.57;;;17.53;;
12784;SDS011;6456;42.680;23.260;2023-02-15T05:05:31;23.77;;;16.87;;
12784;SDS011;6456;42.680;23.260;2023-02-15T05:07:58;21.80;;;16.70;;
12784;SDS011;6456;42.680;23.260;2023-02-15T05:10:28;21.67;;;17.03;;
12784;SDS011;6456;42.680;23.260;2023-02-15T05:12:55;23.13;;;16.90;;
12784;SDS011;6456;42.680;23.260;2023-02-15T05:15:22;22.37;;;16.60;;
12784;SDS011;6456;42.680;23.260;2023-02-15T05:17:49;22.80;;;15.90;;
12784;SDS011;6456;42.680;23.260;2023-02-15T05:20:16;22.23;;;16.87;;
12784;SDS011;6456;42.680;23.260;2023-02-15T05:22:43;23.97;;;16.63;;
12784;SDS011;6456;42.680;23.260;2023-02-15T05:25:10;22.03;;;16.50;;
12784;SDS011;6456;42.680;23.260;2023-02-15T05:27:56;22.80;;;17.03;;
12784;SDS011;6456;42.680;23.260;2023-02-15T05:30:40;24.43;;;17.10;;
12784;SDS011;6456;42.680;23.260;2023-02-15T05:33:07;21.70;;;16.87;;
12784;SDS011;6456;42.680;23.260;2023-02-15T05:35:34;23.37;;;17.53;;
12784;SDS011;6456;42.680;23.260;2023-02-15T05:38:01;24.70;;;16.83;;
12784;SDS011;6456;42.680;23.260;2023-02-15T05:40:28;23.67;;;16.93;;
12784;SDS011;6456;42.680;23.260;2023-02-15T05:42:56;23.23;;;17.03;;
12784;SDS011;6456;42.680;23.260;2023-02-15T05:45:24;22.47;;;16.87;;
12784;SDS011;6456;42.680;23.260;2023-02-15T05:47:51;23.97;;;17.93;;
12784;SDS011;6456;42.680;23.260;2023-02-15T05:50:18;21.13;;;16.50;;
12784;SDS011;6456;42.680;23.260;2023-02-15T05:52:45;20.37;;;16.07;;
12784;SDS011;6456;42.680;23.260;2023-02-15T05:55:12;23.20;;;17.33;;
12784;SDS011;6456;42.680;23.260;2023-02-15T05:57:39;23.07;;;16.80;;
12784;SDS011;6456;42.680;23.260;2023-02-15T06:00:08;21.50;;;15.87;;
12784;SDS011;6456;42.680;23.260;2023-02-15T06:02:36;23.67;;;17.00;;
12784;SDS011;6456;42.680;23.260;2023-02-15T06:05:04;23.37;;;16.37;;
12784;SDS011;6456;42.680;23.260;2023-02-15T06:07:32;23.73;;;16.40;;
12784;SDS011;6456;42.680;23.260;2023-02-15T06:09:59;22.60;;;16.57;;
12784;SDS011;6456;42.680;23.260;2023-02-15T06:12:26;20.70;;;15.50;;
12784;SDS011;6456;42.680;23.260;2023-02-15T06:14:53;21.50;;;16.00;;
12784;SDS011;6456;42.680;23.260;2023-02-15T06:17:21;22.23;;;16.83;;
12784;SDS011;6456;42.680;23.260;2023-02-15T06:19:48;22.60;;;16.97;;
12784;SDS011;6456;42.680;23.260;2023-02-15T06:22:14;21.40;;;16.90;;
12784;SDS011;6456;42.680;23.260;2023-02-15T06:24:41;22.47;;;16.53;;
12784;SDS011;6456;42.680;23.260;2023-02-15T06:27:08;21.47;;;16.07;;
12784;SDS011;6456;42.680;23.260;2023-02-15T06:29:35;20.93;;;15.53;;
12784;SDS011;6456;42.680;23.260;2023-02-15T06:32:02;25.67;;;18.87;;
12784;SDS011;6456;42.680;23.260;2023-02-15T06:34:31;25.60;;;18.20;;
12784;SDS011;6456;42.680;23.260;2023-02-15T06:36:58;24.20;;;15.83;;
12784;SDS011;6456;42.680;23.260;2023-02-15T06:39:25;21.77;;;16.40;;
12784;SDS011;6456;42.680;23.260;2023-02-15T06:41:52;19.13;;;14.70;;
12784;SDS011;6456;42.680;23.260;2023-02-15T06:44:18;19.90;;;13.93;;
12784;SDS011;6456;42.680;23.260;2023-02-15T06:46:45;21.60;;;16.93;;
12784;SDS011;6456;42.680;23.260;2023-02-15T06:49:12;19.07;;;14.17;;
12784;SDS011;6456;42.680;23.260;2023-02-15T06:51:40;20.83;;;15.00;;
12784;SDS011;6456;42.680;23.260;2023-02-15T06:54:07;18.17;;;13.07;;
12784;SDS011;6456;42.680;23.260;2023-02-15T06:56:34;18.97;;;13.53;;
12784;SDS011;6456;42.680;23.260;2023-02-15T06:59:01;19.60;;;14.40;;
12784;SDS011;6456;42.680;23.260;2023-02-15T07:01:28;18.70;;;13.40;;
12784;SDS011;6456;42.680;23.260;2023-02-15T07:03:55;22.07;;;14.53;;
12784;SDS011;6456;42.680;23.260;2023-02-15T07:06:21;16.10;;;12.37;;
12784;SDS011;6456;42.680;23.260;2023-02-15T07:08:50;17.77;;;13.77;;
12784;SDS011;6456;42.680;23.260;2023-02-15T07:11:16;17.60;;;13.30;;
12784;SDS011;6456;42.680;23.260;2023-02-15T07:14:01;20.63;;;13.23;;
12784;SDS011;6456;42.680;23.260;2023-02-15T07:16:28;17.63;;;13.13;;
12784;SDS011;6456;42.680;23.260;2023-02-15T07:18:54;18.13;;;12.93;;
12784;SDS011;6456;42.680;23.260;2023-02-15T07:21:22;16.57;;;12.87;;
12784;SDS011;6456;42.680;23.260;2023-02-15T07:23:55;17.60;;;12.53;;
12784;SDS011;6456;42.680;23.260;2023-02-15T07:26:22;18.70;;;13.33;;
12784;SDS011;6456;42.680;23.260;2023-02-15T07:28:49;18.47;;;13.27;;
12784;SDS011;6456;42.680;23.260;2023-02-15T07:31:16;16.53;;;11.97;;
12784;SDS011;6456;42.680;23.260;2023-02-15T07:33:43;17.43;;;12.90;;
12784;SDS011;6456;42.680;23.260;2023-02-15T07:36:10;16.30;;;12.77;;
12784;SDS011;6456;42.680;23.260;2023-02-15T07:38:37;15.33;;;12.53;;
12784;SDS011;6456;42.680;23.260;2023-02-15T07:41:07;17.13;;;12.87;;
12784;SDS011;6456;42.680;23.260;2023-02-15T07:43:37;17.03;;;13.00;;
12784;SDS011;6456;42.680;23.260;2023-02-15T07:46:07;16.80;;;13.07;;
12784;SDS011;6456;42.680;23.260;2023-02-15T07:48:35;17.00;;;12.90;;
12784;SDS011;6456;42.680;23.260;2023-02-15T07:51:04;16.17;;;12.50;;
12784;SDS011;6456;42.680;23.260;2023-02-15T07:53:33;18.07;;;13.20;;
12784;SDS011;6456;42.680;23.260;2023-02-15T07:56:00;17.03;;;13.37;;
12784;SDS011;6456;42.680;23.260;2023-02-15T07:58:28;18.50;;;12.73;;
12784;SDS011;6456;42.680;23.260;2023-02-15T08:01:09;17.63;;;12.77;;
12784;SDS011;6456;42.680;23.260;2023-02-15T08:03:36;16.03;;;12.37;;
12784;SDS011;6456;42.680;23.260;2023-02-15T08:06:03;15.83;;;12.10;;
12784;SDS011;6456;42.680;23.260;2023-02-15T08:08:30;17.47;;;12.07;;
12784;SDS011;6456;42.680;23.260;2023-02-15T08:11:00;15.33;;;11.17;;
12784;SDS011;6456;42.680;23.260;2023-02-15T08:13:47;19.50;;;12.57;;
12784;SDS011;6456;42.680;23.260;2023-02-15T08:16:24;15.07;;;11.93;;
12784;SDS011;6456;42.680;23.260;2023-02-15T08:18:53;16.20;;;11.73;;
12784;SDS011;6456;42.680;23.260;2023-02-15T08:21:21;17.60;;;12.20;;
12784;SDS011;6456;42.680;23.260;2023-02-15T08:23:48;14.93;;;11.63;;
12784;SDS011;6456;42.680;23.260;2023-02-15T08:26:15;14.97;;;12.17;;
12784;SDS011;6456;42.680;23.260;2023-02-15T08:28:42;16.27;;;12.50;;
12784;SDS011;6456;42.680;23.260;2023-02-15T08:31:12;15.60;;;11.03;;
12784;SDS011;6456;42.680;23.260;2023-02-15T08:33:40;14.93;;;10.70;;
12784;SDS011;6456;42.680;23.260;2023-02-15T08:36:09;15.77;;;11.77;;
12784;SDS011;6456;42.680;23.260;2023-02-15T08:38:37;18.37;;;12.20;;
12784;SDS011;6456;42.680;23.260;2023-02-15T08:41:12;18.57;;;11.77;;
12784;SDS011;6456;42.680;23.260;2023-02-15T08:43:40;14.43;;;11.93;;
12784;SDS011;6456;42.680;23.260;2023-02-15T08:46:07;15.80;;;12.07;;
12784;SDS011;6456;42.680;23.260;2023-02-15T08:48:39;15.47;;;12.30;;
12784;SDS011;6456;42.680;23.260;2023-02-15T08:51:06;16.03;;;12.33;;
12784;SDS011;6456;42.680;23.260;2023-02-15T08:53:35;17.07;;;12.33;;
12784;SDS011;6456;42.680;23.260;2023-02-15T08:56:03;15.90;;;12.10;;
12784;SDS011;6456;42.680;23.260;2023-02-15T08:58:30;15.73;;;12.57;;
12784;SDS011;6456;42.680;23.260;2023-02-15T09:00:57;15.20;;;12.10;;
12784;SDS011;6456;42.680;23.260;2023-02-15T09:03:24;14.37;;;11.77;;
12784;SDS011;6456;42.680;23.260;2023-02-15T09:05:59;16.33;;;11.80;;
12784;SDS011;6456;42.680;23.260;2023-02-15T09:08:26;14.90;;;11.93;;
12784;SDS011;6456;42.680;23.260;2023-02-15T09:11:04;15.97;;;12.67;;
12784;SDS011;6456;42.680;23.260;2023-02-15T09:13:35;15.70;;;12.97;;
12784;SDS011;6456;42.680;23.260;2023-02-15T09:16:03;18.17;;;12.93;;
12784;SDS011;6456;42.680;23.260;2023-02-15T09:18:32;17.43;;;13.50;;
12784;SDS011;6456;42.680;23.260;2023-02-15T09:21:10;18.20;;;13.33;;
12784;SDS011;6456;42.680;23.260;2023-02-15T09:23:39;19.30;;;14.23;;
12784;SDS011;6456;42.680;23.260;2023-02-15T09:26:07;16.63;;;12.97;;
12784;SDS011;6456;42.680;23.260;2023-02-15T09:28:35;17.77;;;13.40;;
12784;SDS011;6456;42.680;23.260;2023-02-15T09:31:09;19.57;;;14.37;;
12784;SDS011;6456;42.680;23.260;2023-02-15T09:33:41;22.20;;;13.87;;
12784;SDS011;6456;42.680;23.260;2023-02-15T09:36:15;18.10;;;14.17;;
12784;SDS011;6456;42.680;23.260;2023-02-15T09:38:44;21.47;;;13.90;;
12784;SDS011;6456;42.680;23.260;2023-02-15T09:41:16;19.33;;;13.73;;
12784;SDS011;6456;42.680;23.260;2023-02-15T09:43:55;20.33;;;14.47;;
12784;SDS011;6456;42.680;23.260;2023-02-15T09:46:34;19.10;;;14.80;;
12784;SDS011;6456;42.680;23.260;2023-02-15T09:49:19;21.37;;;15.57;;
12784;SDS011;6456;42.680;23.260;2023-02-15T09:52:01;20.73;;;15.53;;
12784;SDS011;6456;42.680;23.260;2023-02-15T09:54:45;18.97;;;13.90;;
12784;SDS011;6456;42.680;23.260;2023-02-15T09:57:25;18.40;;;14.23;;
12784;SDS011;6456;42.680;23.260;2023-02-15T10:00:00;18.27;;;13.83;;
12784;SDS011;6456;42.680;23.260;2023-02-15T10:02:35;20.67;;;14.07;;
12784;SDS011;6456;42.680;23.260;2023-02-15T10:05:19;18.83;;;14.07;;
12784;SDS011;6456;42.680;23.260;2023-02-15T10:08:12;18.27;;;14.23;;
12784;SDS011;6456;42.680;23.260;2023-02-15T10:10:54;19.03;;;15.20;;
12784;SDS011;6456;42.680;23.260;2023-02-15T10:13:51;18.30;;;15.17;;
12784;SDS011;6456;42.680;23.260;2023-02-15T10:16:34;18.53;;;14.87;;
12784;SDS011;6456;42.680;23.260;2023-02-15T10:19:08;21.10;;;15.90;;
12784;SDS011;6456;42.680;23.260;2023-02-15T10:21:44;20.07;;;15.23;;
12784;SDS011;6456;42.680;23.260;2023-02-15T10:24:23;20.83;;;14.67;;
12784;SDS011;6456;42.680;23.260;2023-02-15T10:27:01;20.97;;;14.77;;
12784;SDS011;6456;42.680;23.260;2023-02-15T10:29:34;18.47;;;14.20;;
12784;SDS011;6456;42.680;23.260;2023-02-15T10:32:09;19.30;;;14.33;;
12784;SDS011;6456;42.680;23.260;2023-02-15T10:34:48;19.60;;;14.40;;
12784;SDS011;6456;42.680;23.260;2023-02-15T10:37:28;18.80;;;14.27;;
12784;SDS011;6456;42.680;23.260;2023-02-15T10:40:14;19.87;;;13.97;;
12784;SDS011;6456;42.680;23.260;2023-02-15T10:42:53;19.07;;;14.83;;
12784;SDS011;6456;42.680;23.260;2023-02-15T10:45:37;20.30;;;14.33;;
12784;SDS011;6456;42.680;23.260;2023-02-15T10:51:10;20.20;;;14.17;;
12784;SDS011;6456;42.680;23.260;2023-02-15T10:53:50;19.37;;;15.03;;
12784;SDS011;6456;42.680;23.260;2023-02-15T10:56:31;18.20;;;13.70;;
12784;SDS011;6456;42.680;23.260;2023-02-15T10:59:06;19.60;;;14.17;;
12784;SDS011;6456;42.680;23.260;2023-02-15T11:01:55;19.53;;;14.93;;
12784;SDS011;6456;42.680;23.260;2023-02-15T11:04:33;18.00;;;15.17;;
12784;SDS011;6456;42.680;23.260;2023-02-15T11:07:11;19.77;;;15.23;;
12784;SDS011;6456;42.680;23.260;2023-02-15T11:09:43;19.27;;;14.27;;
12784;SDS011;6456;42.680;23.260;2023-02-15T11:12:16;20.13;;;15.90;;
12784;SDS011;6456;42.680;23.260;2023-02-15T11:14:46;20.00;;;14.90;;
12784;SDS011;6456;42.680;23.260;2023-02-15T11:17:20;19.80;;;14.70;;
12784;SDS011;6456;42.680;23.260;2023-02-15T11:19:51;17.80;;;14.30;;
12784;SDS011;6456;42.680;23.260;2023-02-15T11:22:25;18.70;;;14.67;;
12784;SDS011;6456;42.680;23.260;2023-02-15T11:24:52;17.60;;;13.30;;
12784;SDS011;6456;42.680;23.260;2023-02-15T11:27:24;20.03;;;15.17;;
12784;SDS011;6456;42.680;23.260;2023-02-15T11:29:57;17.90;;;14.43;;
12784;SDS011;6456;42.680;23.260;2023-02-15T11:32:27;17.23;;;13.60;;
12784;SDS011;6456;42.680;23.260;2023-02-15T11:34:58;16.63;;;13.97;;
12784;SDS011;6456;42.680;23.260;2023-02-15T11:37:30;17.97;;;13.87;;
12784;SDS011;6456;42.680;23.260;2023-02-15T11:40:02;20.73;;;14.70;;
12784;SDS011;6456;42.680;23.260;2023-02-15T11:42:40;19.17;;;14.07;;
12784;SDS011;6456;42.680;23.260;2023-02-15T11:45:17;18.63;;;13.90;;
12784;SDS011;6456;42.680;23.260;2023-02-15T11:47:49;18.80;;;14.60;;
12784;SDS011;6456;42.680;23.260;2023-02-15T11:50:19;19.57;;;14.50;;
12784;SDS011;6456;42.680;23.260;2023-02-15T11:52:48;19.13;;;14.13;;
12784;SDS011;6456;42.680;23.260;2023-02-15T11:57:51;18.83;;;14.90;;
12784;SDS011;6456;42.680;23.260;2023-02-15T12:00:25;16.77;;;13.60;;
12784;SDS011;6456;42.680;23.260;2023-02-15T12:03:01;19.07;;;14.53;;
12784;SDS011;6456;42.680;23.260;2023-02-15T12:05:39;19.00;;;14.43;;
12784;SDS011;6456;42.680;23.260;2023-02-15T12:08:10;18.03;;;14.70;;
12784;SDS011;6456;42.680;23.260;2023-02-15T12:10:43;18.13;;;14.50;;
12784;SDS011;6456;42.680;23.260;2023-02-15T12:13:17;19.10;;;15.47;;
12784;SDS011;6456;42.680;23.260;2023-02-15T12:15:46;21.93;;;17.20;;
12784;SDS011;6456;42.680;23.260;2023-02-15T12:18:24;19.33;;;15.63;;
12784;SDS011;6456;42.680;23.260;2023-02-15T12:21:02;17.80;;;14.53;;
12784;SDS011;6456;42.680;23.260;2023-02-15T12:23:32;19.60;;;14.67;;
12784;SDS011;6456;42.680;23.260;2023-02-15T12:26:07;20.17;;;15.30;;
12784;SDS011;6456;42.680;23.260;2023-02-15T12:28:36;19.37;;;14.70;;
12784;SDS011;6456;42.680;23.260;2023-02-15T12:31:07;24.53;;;16.70;;
12784;SDS011;6456;42.680;23.260;2023-02-15T12:33:45;20.37;;;15.00;;
12784;SDS011;6456;42.680;23.260;2023-02-15T12:36:13;20.90;;;16.23;;
12784;SDS011;6456;42.680;23.260;2023-02-15T12:38:48;21.53;;;15.80;;
12784;SDS011;6456;42.680;23.260;2023-02-15T12:41:29;21.37;;;15.93;;
12784;SDS011;6456;42.680;23.260;2023-02-15T12:44:04;21.23;;;15.67;;
12784;SDS011;6456;42.680;23.260;2023-02-15T12:46:33;22.07;;;17.27;;
12784;SDS011;6456;42.680;23.260;2023-02-15T12:49:07;23.03;;;16.17;;
12784;SDS011;6456;42.680;23.260;2023-02-15T12:51:43;21.77;;;14.83;;
12784;SDS011;6456;42.680;23.260;2023-02-15T12:54:24;19.43;;;14.60;;
12784;SDS011;6456;42.680;23.260;2023-02-15T12:59:58;18.07;;;14.73;;
12784;SDS011;6456;42.680;23.260;2023-02-15T13:02:28;21.33;;;16.00;;
12784;SDS011;6456;42.680;23.260;2023-02-15T13:05:04;19.27;;;15.10;;
12784;SDS011;6456;42.680;23.260;2023-02-15T13:07:44;19.90;;;15.87;;
12784;SDS011;6456;42.680;23.260;2023-02-15T13:10:20;19.40;;;15.73;;
12784;SDS011;6456;42.680;23.260;2023-02-15T13:12:50;19.30;;;14.87;;
12784;SDS011;6456;42.680;23.260;2023-02-15T13:15:27;26.03;;;16.13;;
12784;SDS011;6456;42.680;23.260;2023-02-15T13:17:58;22.27;;;16.40;;
12784;SDS011;6456;42.680;23.260;2023-02-15T13:20:26;22.33;;;15.13;;
12784;SDS011;6456;42.680;23.260;2023-02-15T13:22:56;20.40;;;16.17;;
12784;SDS011;6456;42.680;23.260;2023-02-15T13:25:26;18.23;;;14.90;;
12784;SDS011;6456;42.680;23.260;2023-02-15T13:27:57;20.30;;;15.80;;
12784;SDS011;6456;42.680;23.260;2023-02-15T13:30:30;18.40;;;14.73;;
12784;SDS011;6456;42.680;23.260;2023-02-15T13:33:02;18.67;;;14.63;;
12784;SDS011;6456;42.680;23.260;2023-02-15T13:35:34;20.17;;;15.70;;
12784;SDS011;6456;42.680;23.260;2023-02-15T13:38:21;18.83;;;15.33;;
12784;SDS011;6456;42.680;23.260;2023-02-15T13:41:03;19.60;;;15.00;;
12784;SDS011;6456;42.680;23.260;2023-02-15T13:43:37;18.53;;;14.97;;
12784;SDS011;6456;42.680;23.260;2023-02-15T13:46:17;20.47;;;15.70;;
12784;SDS011;6456;42.680;23.260;2023-02-15T13:48:54;20.87;;;15.23;;
12784;SDS011;6456;42.680;23.260;2023-02-15T13:51:30;20.43;;;15.00;;
12784;SDS011;6456;42.680;23.260;2023-02-15T13:54:20;21.50;;;16.03;;
12784;SDS011;6456;42.680;23.260;2023-02-15T13:57:03;23.43;;;16.33;;
12784;SDS011;6456;42.680;23.260;2023-02-15T13:59:52;20.77;;;16.67;;
12784;SDS011;6456;42.680;23.260;2023-02-15T14:02:40;18.53;;;15.60;;
12784;SDS011;6456;42.680;23.260;2023-02-15T14:05:32;19.63;;;15.70;;
12784;SDS011;6456;42.680;23.260;2023-02-15T14:08:13;23.67;;;16.30;;
12784;SDS011;6456;42.680;23.260;2023-02-15T14:10:45;23.30;;;17.17;;
12784;SDS011;6456;42.680;23.260;2023-02-15T14:16:20;21.13;;;16.83;;
12784;SDS011;6456;42.680;23.260;2023-02-15T14:19:01;23.27;;;17.20;;
12784;SDS011;6456;42.680;23.260;2023-02-15T14:21:37;23.23;;;17.03;;
12784;SDS011;6456;42.680;23.260;2023-02-15T14:24:14;24.23;;;17.33;;
12784;SDS011;6456;42.680;23.260;2023-02-15T14:26:51;21.30;;;15.87;;
12784;SDS011;6456;42.680;23.260;2023-02-15T14:29:28;20.93;;;15.77;;
12784;SDS011;6456;42.680;23.260;2023-02-15T14:32:12;24.77;;;16.40;;
12784;SDS011;6456;42.680;23.260;2023-02-15T14:34:45;22.27;;;16.90;;
12784;SDS011;6456;42.680;23.260;2023-02-15T14:37:16;24.17;;;17.57;;
12784;SDS011;6456;42.680;23.260;2023-02-15T14:39:50;19.53;;;16.27;;
12784;SDS011;6456;42.680;23.260;2023-02-15T14:42:40;22.30;;;17.30;;
12784;SDS011;6456;42.680;23.260;2023-02-15T14:45:17;20.80;;;15.47;;
12784;SDS011;6456;42.680;23.260;2023-02-15T14:47:51;21.30;;;16.23;;
12784;SDS011;6456;42.680;23.260;2023-02-15T14:50:39;20.20;;;15.67;;
12784;SDS011;6456;42.680;23.260;2023-02-15T14:53:15;22.60;;;16.87;;
12784;SDS011;6456;42.680;23.260;2023-02-15T14:55:43;21.30;;;16.37;;
12784;SDS011;6456;42.680;23.260;2023-02-15T14:58:10;22.80;;;17.30;;
12784;SDS011;6456;42.680;23.260;2023-02-15T15:00:38;23.57;;;16.37;;
12784;SDS011;6456;42.680;23.260;2023-02-15T15:03:18;22.40;;;16.57;;